createdAt,value
2023-04-26T00:01:06.482Z,5.76
2023-04-26T00:03:54.123Z,5.71
2023-04-26T00:06:42.017Z,5.65
2023-04-26T00:09:30.934Z,5.62
2023-04-26T00:12:18.857Z,5.59
2023-04-26T00:15:07.517Z,5.54
2023-04-26T00:17:55.194Z,5.50
2023-04-26T00:20:42.798Z,5.48
2023-04-26T00:23:30.273Z,5.42
2023-04-26T00:26:18.999Z,5.36
2023-04-26T00:29:06.598Z,5.28
2023-04-26T00:31:54.294Z,5.25
2023-04-26T00:34:41.949Z,5.24
2023-04-26T00:37:29.417Z,5.15
2023-04-26T00:40:17.458Z,5.12
2023-04-26T00:43:08.105Z,5.05
2023-04-26T00:45:55.870Z,5.00
2023-04-26T00:48:43.919Z,4.95
2023-04-26T00:51:31.575Z,4.93
2023-04-26T00:54:21.629Z,4.88
2023-04-26T00:57:10.417Z,4.81
2023-04-26T00:59:59.537Z,4.79
2023-04-26T01:02:47.479Z,4.78
2023-04-26T01:05:36.677Z,4.76
2023-04-26T01:08:25.603Z,4.72
2023-04-26T01:11:13.534Z,4.65
2023-04-26T01:14:01.897Z,4.62
2023-04-26T01:16:52.230Z,4.55
2023-04-26T01:19:48.953Z,4.53
2023-04-26T01:22:37.716Z,4.49
2023-04-26T01:25:25.218Z,4.42
2023-04-26T01:28:12.585Z,4.37
2023-04-26T01:30:59.974Z,4.32
2023-04-26T01:33:47.380Z,4.27
2023-04-26T01:36:34.827Z,4.25
2023-04-26T01:39:23.733Z,4.24
2023-04-26T01:42:11.765Z,4.18
2023-04-26T01:44:59.207Z,4.18
2023-04-26T01:47:46.709Z,4.11
2023-04-26T01:50:34.239Z,4.04
2023-04-26T01:53:22.074Z,4.00
2023-04-26T01:56:11.585Z,3.97
2023-04-26T01:58:59.318Z,3.92
2023-04-26T02:01:47.072Z,3.91
2023-04-26T02:04:34.992Z,3.88
2023-04-26T02:07:23.643Z,3.86
2023-04-26T02:10:11.758Z,3.79
2023-04-26T02:13:00.580Z,3.73
2023-04-26T02:15:48.425Z,3.70
2023-04-26T02:18:35.997Z,3.67
2023-04-26T02:21:24.958Z,3.65
2023-04-26T02:24:12.460Z,3.61
2023-04-26T02:27:03.800Z,3.58
2023-04-26T02:29:52.783Z,3.51
2023-04-26T02:32:40.995Z,3.48
2023-04-26T02:35:28.375Z,3.43
2023-04-26T02:38:16.016Z,3.43
2023-04-26T02:41:04.971Z,3.38
2023-04-26T02:43:52.863Z,3.32
2023-04-26T02:46:41.554Z,3.27
2023-04-26T02:49:29.662Z,3.19
2023-04-26T02:52:17.070Z,3.12
2023-04-26T02:55:05.441Z,3.05
2023-04-26T02:57:52.923Z,3.00
2023-04-26T03:00:40.333Z,2.95
2023-04-26T03:03:29.739Z,2.91
2023-04-26T03:06:17.524Z,2.86
2023-04-26T03:09:05.859Z,2.83
2023-04-26T03:11:54.054Z,2.77
2023-04-26T03:14:44.444Z,2.73
2023-04-26T03:17:31.937Z,2.66
2023-04-26T03:20:21.076Z,2.61
2023-04-26T03:23:08.512Z,2.56
2023-04-26T03:25:55.946Z,2.48
2023-04-26T03:28:43.421Z,2.43
2023-04-26T03:31:30.783Z,2.38
2023-04-26T03:34:18.148Z,2.32
2023-04-26T03:37:06.926Z,2.28
2023-04-26T03:39:54.720Z,2.24
2023-04-26T03:42:42.358Z,2.18
2023-04-26T03:45:30.128Z,2.12
2023-04-26T03:48:17.768Z,2.07
2023-04-26T03:51:06.159Z,2.03
2023-04-26T03:53:54.926Z,1.97
2023-04-26T03:56:42.204Z,1.91
2023-04-26T03:59:29.704Z,1.85
2023-04-26T04:02:17.457Z,1.80
2023-04-26T04:05:05.833Z,1.74
2023-04-26T04:07:53.579Z,1.70
2023-04-26T04:10:42.645Z,1.67
2023-04-26T04:13:30.013Z,1.60
2023-04-26T04:16:17.534Z,1.56
2023-04-26T04:19:05.233Z,1.52
2023-04-26T04:21:52.843Z,1.50
2023-04-26T04:24:40.961Z,1.47
2023-04-26T04:27:30.346Z,1.42
2023-04-26T04:30:24.523Z,1.39
2023-04-26T04:33:12.184Z,1.37
2023-04-26T04:36:00.466Z,1.35
2023-04-26T04:38:47.935Z,1.31
2023-04-26T04:41:35.424Z,1.28
2023-04-26T04:44:26.699Z,1.27
2023-04-26T04:47:15.331Z,1.25
2023-04-26T04:50:03.395Z,1.23
2023-04-26T04:52:51.268Z,1.21
2023-04-26T04:55:38.671Z,1.21
2023-04-26T04:58:26.123Z,1.19
2023-04-26T05:01:15.223Z,1.18
2023-04-26T05:04:03.683Z,1.17
2023-04-26T05:06:52.160Z,1.22
2023-04-26T05:09:39.465Z,1.27
2023-04-26T05:12:26.896Z,1.31
2023-04-26T05:15:14.833Z,1.30
2023-04-26T05:18:03.749Z,1.40
2023-04-26T05:20:51.205Z,1.41
2023-04-26T05:23:38.813Z,1.44
2023-04-26T05:26:26.411Z,1.54
2023-04-26T05:29:13.852Z,1.66
2023-04-26T05:32:01.290Z,1.76
2023-04-26T05:34:50.131Z,1.78
2023-04-26T05:37:39.374Z,1.84
2023-04-26T05:40:27.192Z,1.86
2023-04-26T05:43:15.223Z,1.92
2023-04-26T05:46:03.078Z,1.97
2023-04-26T05:48:50.655Z,2.05
2023-04-26T05:51:39.415Z,2.12
2023-04-26T05:54:26.964Z,2.20
2023-04-26T05:57:14.324Z,2.28
2023-04-26T06:00:01.937Z,2.37
2023-04-26T06:02:49.915Z,2.38
2023-04-26T06:05:38.646Z,2.49
2023-04-26T06:08:28.401Z,2.61
2023-04-26T06:11:16.257Z,2.68
2023-04-26T06:14:03.746Z,2.71
2023-04-26T06:16:51.543Z,2.80
2023-04-26T06:19:39.153Z,2.94
2023-04-26T06:22:26.715Z,3.17
2023-04-26T06:25:15.502Z,3.27
2023-04-26T06:28:03.781Z,3.31
2023-04-26T06:30:51.220Z,3.43
2023-04-26T06:33:38.804Z,3.59
2023-04-26T06:36:28.158Z,3.68
2023-04-26T06:39:15.799Z,3.85
2023-04-26T06:42:04.825Z,4.02
2023-04-26T06:44:52.360Z,4.17
2023-04-26T06:47:40.118Z,4.29
2023-04-26T06:50:27.860Z,4.39
2023-04-26T06:53:23.438Z,4.52
2023-04-26T06:56:11.183Z,4.71
2023-04-26T06:59:05.167Z,4.86
2023-04-26T07:01:54.237Z,5.03
2023-04-26T07:04:42.081Z,5.22
2023-04-26T07:07:29.767Z,5.38
2023-04-26T07:10:18.025Z,5.55
2023-04-26T07:13:06.823Z,5.80
2023-04-26T07:15:57.927Z,6.03
2023-04-26T07:18:48.253Z,6.19
2023-04-26T07:21:36.048Z,6.46
2023-04-26T07:24:23.745Z,6.67
2023-04-26T07:27:11.284Z,7.16
2023-04-26T07:29:59.414Z,7.55
2023-04-26T07:32:48.476Z,7.85
2023-04-26T07:35:36.381Z,8.14
2023-04-26T07:38:32.124Z,8.51
2023-04-26T07:41:19.741Z,8.81
2023-04-26T07:44:22.357Z,9.38
2023-04-26T07:47:14.413Z,9.84
2023-04-26T07:50:03.100Z,10.63
2023-04-26T07:52:51.321Z,10.91
2023-04-26T07:55:39.064Z,11.52
2023-04-26T07:58:26.560Z,11.90
2023-04-26T08:01:15.708Z,11.99
2023-04-26T08:04:05.030Z,12.41
2023-04-26T08:06:53.930Z,12.85
2023-04-26T08:10:08.221Z,12.98
2023-04-26T08:12:57.342Z,13.35
2023-04-26T08:15:44.913Z,13.61
2023-04-26T08:18:32.415Z,14.19
2023-04-26T08:21:19.883Z,14.77
2023-04-26T08:24:09.132Z,14.83
2023-04-26T08:26:58.509Z,15.50
2023-04-26T08:29:47.088Z,15.86
2023-04-26T08:32:35.544Z,15.80
2023-04-26T08:35:23.314Z,16.11
2023-04-26T08:38:29.189Z,16.08
2023-04-26T08:44:29.945Z,16.23
2023-04-26T08:47:23.878Z,16.20
2023-04-26T08:50:14.875Z,16.23
2023-04-26T08:53:03.363Z,16.21
2023-04-26T08:55:52.537Z,16.19
2023-04-26T08:58:40.689Z,16.17
2023-04-26T09:01:31.618Z,16.03
2023-04-26T09:04:19.475Z,16.06
2023-04-26T09:07:13.114Z,16.01
2023-04-26T09:10:02.180Z,15.87
2023-04-26T09:12:53.834Z,15.74
2023-04-26T09:15:41.744Z,15.62
2023-04-26T09:18:33.827Z,15.55
2023-04-26T09:21:21.871Z,15.55
2023-04-26T09:24:09.853Z,15.51
2023-04-26T09:27:04.067Z,15.50
2023-04-26T09:30:07.882Z,15.48
2023-04-26T09:32:57.782Z,15.56
2023-04-26T09:35:46.994Z,15.64
2023-04-26T09:38:44.284Z,15.61
2023-04-26T09:41:45.014Z,15.63
2023-04-26T09:44:33.449Z,15.79
2023-04-26T09:47:23.993Z,16.06
2023-04-26T09:50:11.945Z,16.24
2023-04-26T09:53:01.397Z,16.56
2023-04-26T09:55:49.691Z,16.91
2023-04-26T09:58:40.973Z,17.04
2023-04-26T10:01:30.767Z,17.24
2023-04-26T10:04:18.986Z,17.36
2023-04-26T10:07:07.473Z,17.52
2023-04-26T10:09:59.461Z,17.60
2023-04-26T10:12:48.410Z,17.45
2023-04-26T10:15:37.241Z,17.41
2023-04-26T10:18:25.089Z,17.27
2023-04-26T10:21:21.183Z,17.19
2023-04-26T10:24:09.739Z,17.06
2023-04-26T10:26:59.582Z,16.93
2023-04-26T10:30:12.116Z,16.85
2023-04-26T10:33:18.579Z,16.72
2023-04-26T10:36:13.002Z,16.66
2023-04-26T10:39:21.964Z,16.54
2023-04-26T10:42:27.354Z,16.47
2023-04-26T10:45:29.990Z,16.48
2023-04-26T10:48:20.439Z,16.50
2023-04-26T10:51:13.191Z,16.56
2023-04-26T10:54:02.739Z,16.63
2023-04-26T10:56:54.021Z,16.78
2023-04-26T11:00:21.148Z,16.97
2023-04-26T11:03:13.043Z,17.02
2023-04-26T11:06:01.769Z,17.16
2023-04-26T11:08:49.858Z,17.13
2023-04-26T11:11:54.253Z,17.26
2023-04-26T11:14:46.170Z,17.25
2023-04-26T11:17:38.831Z,17.36
2023-04-26T11:20:32.147Z,17.47
2023-04-26T11:23:21.291Z,17.51
2023-04-26T11:26:10.414Z,17.60
2023-04-26T11:28:58.159Z,17.63
2023-04-26T11:31:55.211Z,17.55
2023-04-26T11:34:43.946Z,17.72
2023-04-26T11:37:31.762Z,17.92
2023-04-26T11:40:20.461Z,18.16
2023-04-26T11:43:10.013Z,18.40
2023-04-26T11:46:01.486Z,18.62
2023-04-26T11:48:53.718Z,18.81
2023-04-26T11:51:42.123Z,18.93
2023-04-26T11:54:31.653Z,19.20
2023-04-26T11:57:20.763Z,19.40
2023-04-26T12:00:16.115Z,19.54
2023-04-26T12:03:11.108Z,19.80
2023-04-26T12:06:01.201Z,19.95
2023-04-26T12:08:52.843Z,19.98
2023-04-26T12:11:41.684Z,19.79
2023-04-26T12:14:33.631Z,19.75
2023-04-26T12:17:21.572Z,19.76
2023-04-26T12:20:13.758Z,19.77
2023-04-26T12:23:09.401Z,19.74
2023-04-26T12:26:01.979Z,19.78
2023-04-26T12:28:50.074Z,19.88
2023-04-26T12:31:38.116Z,19.98
2023-04-26T12:34:26.159Z,19.96
2023-04-26T12:37:14.078Z,19.86
2023-04-26T12:40:03.307Z,19.70
2023-04-26T12:42:51.839Z,19.64
2023-04-26T12:45:39.322Z,19.62
2023-04-26T12:48:26.925Z,19.67
2023-04-26T12:51:14.647Z,19.73
2023-04-26T12:54:02.821Z,19.33
2023-04-26T12:56:52.198Z,19.76
2023-04-26T12:59:39.989Z,19.97
2023-04-26T13:02:27.807Z,20.01
2023-04-26T13:05:15.990Z,19.86
2023-04-26T13:08:03.639Z,19.91
2023-04-26T13:10:51.229Z,20.02
2023-04-26T13:13:44.284Z,20.09
2023-04-26T13:16:33.511Z,20.10
2023-04-26T13:19:21.770Z,20.07
2023-04-26T13:22:12.764Z,19.95
2023-04-26T13:25:00.610Z,19.88
2023-04-26T13:27:48.411Z,19.96
2023-04-26T13:30:41.051Z,19.90
2023-04-26T13:33:28.956Z,19.68
2023-04-26T13:36:16.955Z,19.84
2023-04-26T13:39:08.039Z,19.84
2023-04-26T13:41:58.819Z,19.51
2023-04-26T13:44:46.323Z,19.79
2023-04-26T13:47:35.342Z,19.16
2023-04-26T13:50:24.017Z,20.07
2023-04-26T13:53:12.417Z,20.15
2023-04-26T13:56:00.124Z,20.18
2023-04-26T13:58:47.645Z,20.35
2023-04-26T14:01:37.054Z,20.54
2023-04-26T14:04:26.350Z,20.64
2023-04-26T14:07:14.306Z,20.81
2023-04-26T14:10:02.895Z,20.93
2023-04-26T14:12:51.156Z,20.93
2023-04-26T14:15:40.517Z,20.94
2023-04-26T14:18:32.309Z,20.94
2023-04-26T14:21:22.699Z,21.06
2023-04-26T14:24:11.817Z,21.11
2023-04-26T14:27:03.277Z,21.08
2023-04-26T14:29:50.813Z,21.36
2023-04-26T14:32:38.448Z,21.46
2023-04-26T14:35:26.358Z,21.43
2023-04-26T14:38:15.894Z,21.38
2023-04-26T14:41:04.027Z,21.22
2023-04-26T14:43:52.072Z,21.20
2023-04-26T14:46:40.046Z,21.18
2023-04-26T14:49:27.682Z,21.09
2023-04-26T14:52:15.243Z,20.98
2023-04-26T14:55:04.421Z,20.96
2023-04-26T14:57:52.286Z,21.05
2023-04-26T15:00:40.056Z,20.95
2023-04-26T15:03:28.228Z,20.85
2023-04-26T15:06:15.858Z,20.83
2023-04-26T15:09:04.268Z,20.90
2023-04-26T15:11:53.373Z,20.99
2023-04-26T15:14:41.106Z,20.61
2023-04-26T15:17:29.348Z,20.68
2023-04-26T15:20:17.484Z,20.70
2023-04-26T15:23:05.054Z,20.46
2023-04-26T15:25:52.852Z,20.49
2023-04-26T15:28:45.439Z,20.55
2023-04-26T15:31:33.814Z,20.48
2023-04-26T15:34:23.525Z,20.49
2023-04-26T15:37:11.289Z,20.54
2023-04-26T15:39:58.919Z,20.61
2023-04-26T15:42:46.560Z,20.73
2023-04-26T15:45:36.825Z,20.90
2023-04-26T15:48:26.043Z,21.13
2023-04-26T15:51:13.944Z,21.27
2023-04-26T15:54:02.077Z,21.43
2023-04-26T15:56:50.165Z,21.45
2023-04-26T15:59:37.901Z,21.58
2023-04-26T16:02:27.958Z,21.54
2023-04-26T16:05:18.064Z,21.60
2023-04-26T16:08:07.342Z,21.61
2023-04-26T16:11:00.901Z,21.68
2023-04-26T16:13:52.218Z,21.76
2023-04-26T16:16:42.103Z,21.77
2023-04-26T16:19:31.644Z,21.72
2023-04-26T16:22:19.250Z,21.65
2023-04-26T16:25:08.949Z,21.72
2023-04-26T16:27:58.888Z,21.85
2023-04-26T16:30:47.027Z,21.91
2023-04-26T16:33:34.812Z,21.89
2023-04-26T16:36:23.805Z,21.93
2023-04-26T16:39:15.637Z,21.97
2023-04-26T16:42:05.557Z,21.73
2023-04-26T16:44:55.802Z,21.61
2023-04-26T16:47:43.752Z,21.53
2023-04-26T16:50:31.466Z,21.47
2023-04-26T16:53:23.021Z,21.36
2023-04-26T16:56:11.061Z,21.13
2023-04-26T16:58:58.581Z,20.85
2023-04-26T17:01:47.394Z,20.10
2023-04-26T17:04:35.627Z,19.55
2023-04-26T17:07:23.907Z,19.19
2023-04-26T17:10:14.713Z,18.73
2023-04-26T17:13:02.526Z,18.46
2023-04-26T17:15:50.528Z,18.42
2023-04-26T17:18:38.888Z,18.42
2023-04-26T17:21:27.144Z,18.34
2023-04-26T17:24:15.358Z,18.21
2023-04-26T17:27:05.331Z,18.03
2023-04-26T17:29:53.244Z,17.78
2023-04-26T17:32:41.348Z,17.54
2023-04-26T17:35:29.425Z,17.37
2023-04-26T17:38:16.965Z,17.22
2023-04-26T17:41:05.108Z,17.06
2023-04-26T17:43:54.449Z,16.87
2023-04-26T17:46:42.524Z,16.72
2023-04-26T17:49:30.450Z,16.54
2023-04-26T17:52:19.994Z,16.36
2023-04-26T17:55:10.085Z,16.20
2023-04-26T17:57:58.538Z,16.02
2023-04-26T18:00:47.902Z,15.84
2023-04-26T18:03:35.768Z,15.66
2023-04-26T18:06:24.082Z,15.49
2023-04-26T18:09:12.232Z,15.33
2023-04-26T18:12:00.174Z,15.17
2023-04-26T18:14:48.262Z,14.99
2023-04-26T18:17:37.742Z,14.83
2023-04-26T18:20:25.700Z,14.66
2023-04-26T18:23:13.726Z,14.48
2023-04-26T18:26:01.433Z,14.30
2023-04-26T18:28:49.456Z,14.11
2023-04-26T18:31:37.694Z,13.91
2023-04-26T18:34:27.055Z,13.72
2023-04-26T18:37:15.189Z,13.51
2023-04-26T18:40:04.813Z,13.31
2023-04-26T18:42:52.911Z,13.09
2023-04-26T18:45:41.504Z,12.90
2023-04-26T18:48:32.572Z,12.71
2023-04-26T18:51:22.546Z,12.55
2023-04-26T18:54:10.473Z,12.36
2023-04-26T18:56:59.428Z,12.19
2023-04-26T18:59:48.418Z,12.02
2023-04-26T19:02:40.072Z,11.84
2023-04-26T19:05:31.313Z,11.68
2023-04-26T19:08:24.017Z,11.52
2023-04-26T19:11:12.449Z,11.37
2023-04-26T19:14:09.039Z,11.24
2023-04-26T19:17:02.608Z,11.09
2023-04-26T19:19:53.255Z,10.95
2023-04-26T19:22:44.495Z,10.81
2023-04-26T19:25:35.181Z,10.66
2023-04-26T19:28:22.857Z,10.53
2023-04-26T19:31:11.137Z,10.38
2023-04-26T19:33:58.730Z,10.24
2023-04-26T19:36:46.617Z,10.10
2023-04-26T19:39:34.685Z,9.97
2023-04-26T19:42:24.721Z,9.83
2023-04-26T19:45:48.523Z,9.69
2023-04-26T19:48:38.926Z,9.56
2023-04-26T19:51:28.452Z,9.45
2023-04-26T19:54:18.198Z,9.32
2023-04-26T19:57:06.432Z,9.21
2023-04-26T19:59:56.033Z,9.08
2023-04-26T20:02:46.377Z,8.97
2023-04-26T20:05:37.066Z,8.86
2023-04-26T20:08:28.382Z,8.73
2023-04-26T20:11:39.913Z,8.64
2023-04-26T20:14:30.257Z,8.56
2023-04-26T20:17:19.641Z,8.45
2023-04-26T20:20:09.537Z,8.36
2023-04-26T20:22:57.738Z,8.25
2023-04-26T20:25:45.630Z,8.17
2023-04-26T20:28:33.696Z,8.05
2023-04-26T20:31:21.782Z,7.96
2023-04-26T20:34:11.793Z,7.87
2023-04-26T20:37:03.470Z,7.79
2023-04-26T20:39:51.406Z,7.69
2023-04-26T20:42:39.393Z,7.59
2023-04-26T20:45:27.457Z,7.56
2023-04-26T20:48:15.499Z,7.46
2023-04-26T20:51:05.345Z,7.39
2023-04-26T20:53:55.291Z,7.32
2023-04-26T20:56:43.301Z,7.25
2023-04-26T20:59:31.437Z,7.15
2023-04-26T21:02:19.361Z,7.08
2023-04-26T21:05:07.705Z,7.00
2023-04-26T21:07:56.846Z,6.95
2023-04-26T21:10:44.784Z,6.87
2023-04-26T21:13:32.708Z,6.83
2023-04-26T21:16:22.659Z,6.76
2023-04-26T21:19:10.638Z,6.68
2023-04-26T21:21:58.566Z,6.63
2023-04-26T21:24:48.111Z,6.57
2023-04-26T21:27:35.792Z,6.52
2023-04-26T21:30:23.911Z,6.47
2023-04-26T21:33:12.471Z,6.36
2023-04-26T21:36:00.839Z,6.34
2023-04-26T21:38:48.817Z,6.34
2023-04-26T21:41:38.308Z,6.31
2023-04-26T21:44:26.301Z,6.30
2023-04-26T21:47:14.193Z,6.27
2023-04-26T21:50:02.336Z,6.24
2023-04-26T21:52:50.481Z,6.23
2023-04-26T21:55:38.114Z,6.23
2023-04-26T21:58:27.544Z,6.25
2023-04-26T22:01:16.624Z,6.24
2023-04-26T22:04:06.292Z,6.20
2023-04-26T22:06:54.371Z,6.17
2023-04-26T22:09:42.348Z,6.11
2023-04-26T22:12:30.058Z,6.08
2023-04-26T22:15:19.873Z,6.04
2023-04-26T22:18:08.194Z,6.02
2023-04-26T22:20:56.083Z,6.01
2023-04-26T22:23:44.137Z,5.95
2023-04-26T22:26:32.793Z,5.92
2023-04-26T22:29:20.887Z,5.90
2023-04-26T22:32:10.719Z,5.87
2023-04-26T22:34:59.345Z,5.81
2023-04-26T22:37:47.451Z,5.78
2023-04-26T22:40:36.243Z,5.75
2023-04-26T22:43:24.732Z,5.72
2023-04-26T22:46:12.919Z,5.68
2023-04-26T22:49:02.069Z,5.62
2023-04-26T22:52:01.219Z,5.61
2023-04-26T22:54:53.707Z,5.58
2023-04-26T22:57:41.781Z,5.55
2023-04-26T23:00:29.990Z,5.52
2023-04-26T23:03:18.083Z,5.54
2023-04-26T23:06:07.916Z,5.50
2023-04-26T23:08:56.056Z,5.48
2023-04-26T23:11:44.577Z,5.43
2023-04-26T23:14:32.447Z,5.40
2023-04-26T23:17:22.983Z,5.37
2023-04-26T23:20:16.093Z,5.35
2023-04-26T23:23:05.391Z,5.36
2023-04-26T23:25:53.240Z,5.33
2023-04-26T23:28:41.276Z,5.30
2023-04-26T23:31:29.461Z,5.25
2023-04-26T23:34:17.434Z,5.22
2023-04-26T23:37:07.500Z,5.19
2023-04-26T23:39:57.728Z,5.16
2023-04-26T23:42:45.587Z,5.15
2023-04-26T23:45:33.916Z,5.13
2023-04-26T23:48:21.925Z,5.13
2023-04-26T23:51:09.984Z,5.12
2023-04-26T23:53:58.208Z,5.13
2023-04-26T23:56:47.696Z,5.08
2023-04-26T23:59:35.740Z,5.04
